createdAt,value
2022-09-20T00:03:42.939Z,20.50
2022-09-20T00:08:50.827Z,26.20
2022-09-20T00:13:59.912Z,18.60
2022-09-20T00:19:10.007Z,16.80
2022-09-20T00:24:19.445Z,23.30
2022-09-20T00:29:26.676Z,23.70
2022-09-20T00:34:51.352Z,20.60
2022-09-20T00:40:00.122Z,28.90
2022-09-20T00:45:09.936Z,27.50
2022-09-20T00:50:27.887Z,26.60
2022-09-20T00:55:37.663Z,31.40
2022-09-20T01:00:48.977Z,16.90
2022-09-20T01:05:57.467Z,24.20
2022-09-20T01:11:04.976Z,22.10
2022-09-20T01:16:16.363Z,28.50
2022-09-20T01:21:24.044Z,21.30
2022-09-20T01:26:53.573Z,32.60
2022-09-20T01:32:05.389Z,22.10
2022-09-20T01:37:25.524Z,28.80
2022-09-20T01:42:38.396Z,27.00
2022-09-20T01:47:53.934Z,22.70
2022-09-20T01:53:38.720Z,26.40
2022-09-20T01:59:31.440Z,28.70
2022-09-20T02:05:08.428Z,15.10
2022-09-20T02:10:36.485Z,27.60
2022-09-20T02:16:07.345Z,26.80
2022-09-20T02:21:28.763Z,23.00
2022-09-20T02:26:47.942Z,23.80
2022-09-20T02:32:11.228Z,21.70
2022-09-20T02:37:34.857Z,25.80
2022-09-20T02:42:47.545Z,26.40
2022-09-20T02:48:02.341Z,27.20
2022-09-20T02:53:26.539Z,16.30
2022-09-20T02:58:42.316Z,21.90
2022-09-20T03:03:59.068Z,28.90
2022-09-20T03:09:17.601Z,24.50
2022-09-20T03:24:15.337Z,18.00
2022-09-20T03:29:36.573Z,26.70
2022-09-20T03:34:54.343Z,25.50
2022-09-20T03:40:26.557Z,26.50
2022-09-20T03:46:04.366Z,25.20
2022-09-20T03:51:30.435Z,25.30
2022-09-20T03:57:19.581Z,21.80
2022-09-20T04:02:42.975Z,19.60
2022-09-20T04:08:05.239Z,24.20
2022-09-20T04:13:26.568Z,23.70
2022-09-20T04:18:41.287Z,22.50
2022-09-20T04:23:57.679Z,20.90
2022-09-20T04:29:20.427Z,21.00
2022-09-20T04:34:51.688Z,20.40
2022-09-20T04:40:11.094Z,20.90
2022-09-20T04:45:35.255Z,22.50
2022-09-20T04:51:12.930Z,22.60
2022-09-20T05:02:26.145Z,16.10
2022-09-20T05:08:14.472Z,22.50
2022-09-20T05:13:39.791Z,19.10
2022-09-20T05:19:13.729Z,24.70
2022-09-20T05:24:40.266Z,22.30
2022-09-20T05:29:57.099Z,21.20
2022-09-20T05:35:13.943Z,23.20
2022-09-20T05:40:30.024Z,23.50
2022-09-20T05:45:53.972Z,17.20
2022-09-20T05:51:05.761Z,24.60
2022-09-20T05:56:23.692Z,21.40
2022-09-20T06:01:35.485Z,16.70
2022-09-20T06:06:57.201Z,17.30
2022-09-20T06:12:24.426Z,21.10
2022-09-20T06:17:38.571Z,15.90
2022-09-20T06:22:50.063Z,19.50
2022-09-20T06:28:01.465Z,26.30
2022-09-20T06:33:18.379Z,20.80
2022-09-20T06:38:59.171Z,19.20
2022-09-20T06:44:06.600Z,21.90
2022-09-20T06:49:13.588Z,25.20
2022-09-20T06:54:23.743Z,19.40
2022-09-20T06:59:32.180Z,16.60
2022-09-20T07:04:39.309Z,20.50
2022-09-20T07:09:50.215Z,16.40
2022-09-20T07:14:57.395Z,20.30
2022-09-20T07:20:17.411Z,21.60
2022-09-20T07:25:28.195Z,18.70
2022-09-20T07:30:35.378Z,22.10
2022-09-20T07:45:13.325Z,13.80
2022-09-20T07:50:20.399Z,13.30
2022-09-20T07:55:27.254Z,19.10
2022-09-20T08:05:39.660Z,15.80
2022-09-20T08:10:47.185Z,14.20
2022-09-20T08:16:02.323Z,14.20
2022-09-20T08:21:11.295Z,13.80
2022-09-20T08:26:20.410Z,12.60
2022-09-20T08:31:31.853Z,10.70
2022-09-20T08:36:41.417Z,9.40
2022-09-20T08:45:22.268Z,9.50
2022-09-20T08:50:31.093Z,10.10
2022-09-20T09:00:49.853Z,8.80
2022-09-20T09:05:58.559Z,7.20
2022-09-20T09:11:14.178Z,10.10
2022-09-20T09:16:25.698Z,9.50
2022-09-20T09:21:39.063Z,4.90
2022-09-20T09:26:46.927Z,7.10
2022-09-20T09:31:55.369Z,4.50
2022-09-20T09:37:02.515Z,5.50
2022-09-20T09:42:26.907Z,5.10
2022-09-20T09:47:39.896Z,4.90
2022-09-20T09:53:00.695Z,4.50
2022-09-20T09:58:22.917Z,6.50
2022-09-20T10:03:53.029Z,5.10
2022-09-20T10:09:13.513Z,4.50
2022-09-20T10:14:30.855Z,4.30
2022-09-20T10:19:53.049Z,7.00
2022-09-20T10:25:15.681Z,9.20
2022-09-20T10:30:27.258Z,9.70
2022-09-20T10:35:53.255Z,10.40
2022-09-20T10:41:44.137Z,6.60
2022-09-20T10:47:02.761Z,7.80
2022-09-20T10:52:23.727Z,4.80
2022-09-20T10:58:03.574Z,7.50
2022-09-20T11:03:26.869Z,11.60
2022-09-20T11:08:38.364Z,4.90
2022-09-20T11:13:53.625Z,6.80
2022-09-20T11:19:07.459Z,6.10
2022-09-20T11:24:29.321Z,3.60
2022-09-20T11:29:41.087Z,6.20
2022-09-20T11:34:55.793Z,5.30
2022-09-20T11:40:08.490Z,11.00
2022-09-20T11:45:16.018Z,4.60
2022-09-20T11:50:52.860Z,4.80
2022-09-20T11:56:05.485Z,5.90
2022-09-20T12:01:16.495Z,7.20
2022-09-20T12:06:33.366Z,4.40
2022-09-20T12:11:42.132Z,5.50
2022-09-20T12:16:53.106Z,13.90
2022-09-20T12:22:31.107Z,10.20
2022-09-20T12:27:58.736Z,8.90
2022-09-20T12:33:06.052Z,10.60
2022-09-20T12:38:42.631Z,10.00
2022-09-20T12:44:07.130Z,5.50
2022-09-20T12:50:08.652Z,9.80
2022-09-20T12:55:38.223Z,3.40
2022-09-20T13:00:50.247Z,4.90
2022-09-20T13:06:27.441Z,4.00
2022-09-20T13:11:41.642Z,3.00
2022-09-20T13:16:55.228Z,3.00
2022-09-20T13:22:08.119Z,2.50
2022-09-20T13:27:20.780Z,2.10
2022-09-20T13:32:31.198Z,2.20
2022-09-20T13:37:43.643Z,2.40
2022-09-20T13:42:52.461Z,4.30
2022-09-20T13:48:02.616Z,2.50
2022-09-20T13:53:39.469Z,2.30
2022-09-20T13:58:46.813Z,2.30
2022-09-20T14:03:54.634Z,2.80
2022-09-20T14:09:09.844Z,2.70
2022-09-20T14:14:22.237Z,3.20
2022-09-20T14:19:33.351Z,2.80
2022-09-20T14:24:40.500Z,2.80
2022-09-20T14:29:49.184Z,3.60
2022-09-20T14:35:08.339Z,2.30
2022-09-20T14:40:26.953Z,3.40
2022-09-20T14:45:37.847Z,2.80
2022-09-20T14:50:47.334Z,3.90
2022-09-20T14:56:09.317Z,3.90
2022-09-20T15:01:25.031Z,2.20
2022-09-20T15:06:32.010Z,3.70
2022-09-20T15:11:39.651Z,3.80
2022-09-20T15:16:46.843Z,3.90
2022-09-20T15:21:54.226Z,3.50
2022-09-20T15:27:01.414Z,5.10
2022-09-20T15:32:09.429Z,3.80
2022-09-20T15:37:16.855Z,3.60
2022-09-20T15:42:24.244Z,3.90
2022-09-20T15:47:32.076Z,3.60
2022-09-20T15:52:41.414Z,3.20
2022-09-20T15:57:50.068Z,5.00
2022-09-20T16:02:57.455Z,4.40
2022-09-20T16:08:05.022Z,4.30
2022-09-20T16:13:12.503Z,6.10
2022-09-20T16:18:37.475Z,4.30
2022-09-20T16:23:49.555Z,4.40
2022-09-20T16:28:58.096Z,3.60
2022-09-20T16:34:07.745Z,4.70
2022-09-20T16:39:16.104Z,5.20
2022-09-20T16:44:27.707Z,5.80
2022-09-20T16:49:38.379Z,7.20
2022-09-20T16:54:45.549Z,7.70
2022-09-20T16:59:56.027Z,6.80
2022-09-20T17:05:03.777Z,6.10
2022-09-20T17:10:12.658Z,6.00
2022-09-20T17:15:21.407Z,8.30
2022-09-20T17:20:30.115Z,7.00
2022-09-20T17:25:47.546Z,10.40
2022-09-20T17:30:56.465Z,7.40
2022-09-20T17:36:06.930Z,9.40
2022-09-20T17:41:19.501Z,8.80
2022-09-20T17:46:30.354Z,7.90
2022-09-20T17:51:40.387Z,9.00
2022-09-20T17:56:49.873Z,10.50
2022-09-20T18:01:58.300Z,9.50
2022-09-20T18:07:08.581Z,11.20
2022-09-20T18:12:19.805Z,8.60
2022-09-20T18:17:28.491Z,8.90
2022-09-20T18:22:35.802Z,9.70
2022-09-20T18:27:43.836Z,9.30
2022-09-20T18:32:57.473Z,11.90
2022-09-20T18:38:05.388Z,8.70
2022-09-20T18:43:14.560Z,11.20
2022-09-20T18:48:23.432Z,10.60
2022-09-20T18:53:38.366Z,7.70
2022-09-20T18:58:45.901Z,14.10
2022-09-20T19:04:01.164Z,13.70
2022-09-20T19:09:20.558Z,13.60
2022-09-20T19:14:38.093Z,15.90
2022-09-20T19:19:54.866Z,13.00
2022-09-20T19:25:20.541Z,15.50
2022-09-20T19:30:32.859Z,14.10
2022-09-20T19:35:49.600Z,13.00
2022-09-20T19:51:23.857Z,12.00
2022-09-20T19:56:46.020Z,12.40
2022-09-20T20:01:55.248Z,20.30
2022-09-20T20:07:08.336Z,16.30
2022-09-20T20:12:25.901Z,17.80
2022-09-20T20:17:47.424Z,16.80
2022-09-20T20:34:17.803Z,17.10
2022-09-20T20:39:25.504Z,18.10
2022-09-20T20:44:35.219Z,16.40
2022-09-20T20:49:43.648Z,19.20
2022-09-20T20:54:51.308Z,18.70
2022-09-20T21:00:00.989Z,19.70
2022-09-20T21:05:10.722Z,20.50
2022-09-20T21:10:17.943Z,18.40
2022-09-20T21:15:27.527Z,19.00
2022-09-20T21:20:35.418Z,16.00
2022-09-20T21:25:45.419Z,24.30
2022-09-20T21:31:04.275Z,23.60
2022-09-20T21:36:14.029Z,19.10
2022-09-20T21:41:23.495Z,21.00
2022-09-20T21:46:33.405Z,21.90
2022-09-20T21:51:42.111Z,21.90
2022-09-20T21:56:50.139Z,23.90
2022-09-20T22:01:59.129Z,20.90
2022-09-20T22:07:06.312Z,21.00
2022-09-20T22:12:14.586Z,21.60
2022-09-20T22:17:24.326Z,18.70
2022-09-20T22:22:36.156Z,21.60
2022-09-20T22:27:45.563Z,20.20
2022-09-20T22:32:52.723Z,22.50
2022-09-20T22:38:03.342Z,21.30
2022-09-20T22:43:13.400Z,19.40
2022-09-20T22:48:22.593Z,23.90
2022-09-20T22:53:36.392Z,21.90
2022-09-20T22:58:46.578Z,20.70
2022-09-20T23:04:01.092Z,18.50
2022-09-20T23:09:10.587Z,16.20
2022-09-20T23:14:21.640Z,20.90
2022-09-20T23:19:31.134Z,20.20
2022-09-20T23:24:38.030Z,21.90
2022-09-20T23:29:45.841Z,18.40
2022-09-20T23:34:52.820Z,14.90
2022-09-20T23:40:03.174Z,15.90
2022-09-20T23:45:13.845Z,12.60
2022-09-20T23:50:21.377Z,16.10
2022-09-20T23:55:29.281Z,15.60
